createdAt,value
2022-08-16T00:00:08.104Z,46.99
2022-08-16T00:05:07.976Z,47.04
2022-08-16T00:10:07.644Z,47.04
2022-08-16T00:15:11.586Z,47.11
2022-08-16T00:20:07.658Z,47.12
2022-08-16T00:25:08.099Z,47.18
2022-08-16T00:30:19.637Z,47.19
2022-08-16T00:35:15.194Z,47.23
2022-08-16T00:40:08.706Z,47.28
2022-08-16T00:45:08.599Z,47.3
2022-08-16T00:50:08.123Z,47.35
2022-08-16T00:55:08.562Z,47.37
2022-08-16T01:00:08.310Z,47.4
2022-08-16T01:05:10.667Z,47.45
2022-08-16T01:10:15.832Z,47.46
2022-08-16T01:15:08.332Z,47.5
2022-08-16T01:20:24.081Z,47.52
2022-08-16T01:25:08.443Z,47.57
2022-08-16T01:30:19.586Z,47.59
2022-08-16T01:35:07.726Z,47.62
2022-08-16T01:40:08.478Z,47.65
2022-08-16T01:45:08.202Z,47.71
2022-08-16T01:50:43.023Z,47.73
2022-08-16T01:55:08.262Z,47.78
2022-08-16T02:00:10.603Z,47.8
2022-08-16T02:05:08.171Z,47.83
2022-08-16T02:10:08.247Z,47.87
2022-08-16T02:15:08.047Z,47.91
2022-08-16T02:20:11.600Z,47.92
2022-08-16T02:25:10.060Z,47.95
2022-08-16T02:30:08.015Z,47.97
2022-08-16T02:35:09.214Z,48.02
2022-08-16T02:40:07.972Z,48.02
2022-08-16T02:45:07.673Z,48.03
2022-08-16T02:50:54.494Z,48.06
2022-08-16T02:55:07.789Z,48.06
2022-08-16T03:00:34.695Z,48.08
2022-08-16T03:05:07.758Z,48.06
2022-08-16T03:10:08.326Z,48.09
2022-08-16T03:15:11.376Z,48.11
2022-08-16T03:20:08.732Z,48.09
2022-08-16T03:25:07.778Z,48.13
2022-08-16T03:30:17.376Z,48.13
2022-08-16T03:35:07.713Z,48.16
2022-08-16T03:40:08.079Z,48.15
2022-08-16T03:45:08.264Z,48.17
2022-08-16T03:50:25.272Z,48.21
2022-08-16T03:55:08.374Z,48.19
2022-08-16T04:00:08.341Z,48.21
2022-08-16T04:05:03.984Z,48.24
2022-08-16T04:10:35.634Z,48.25
2022-08-16T04:15:02.336Z,48.29
2022-08-16T04:20:03.538Z,48.3
2022-08-16T04:25:03.340Z,48.32
2022-08-16T04:30:04.547Z,48.33
2022-08-16T04:35:08.487Z,48.36
2022-08-16T04:40:05.691Z,48.38
2022-08-16T04:45:03.629Z,48.39
2022-08-16T04:50:03.415Z,48.42
2022-08-16T04:55:03.618Z,48.46
2022-08-16T05:00:32.035Z,48.5
2022-08-16T05:05:02.545Z,48.62
2022-08-16T05:10:03.840Z,48.65
2022-08-16T05:15:05.507Z,48.79
2022-08-16T05:20:39.552Z,48.85
2022-08-16T05:25:09.013Z,48.97
2022-08-16T05:30:34.634Z,49.05
2022-08-16T05:35:04.814Z,49.1
2022-08-16T05:40:06.086Z,49.14
2022-08-16T05:45:06.944Z,49.25
2022-08-16T05:50:02.700Z,49.28
2022-08-16T05:55:06.890Z,49.34
2022-08-16T06:00:08.864Z,49.39
2022-08-16T06:05:05.174Z,49.46
2022-08-16T06:10:03.621Z,49.46
2022-08-16T06:15:09.975Z,49.49
2022-08-16T06:20:04.274Z,49.49
2022-08-16T06:25:04.566Z,49.54
2022-08-16T06:30:03.208Z,49.51
2022-08-16T06:35:03.163Z,49.5
2022-08-16T06:40:02.566Z,49.47
2022-08-16T06:45:02.832Z,49.48
2022-08-16T06:50:04.644Z,49.46
2022-08-16T06:55:03.754Z,49.45
2022-08-16T07:00:03.794Z,49.4
2022-08-16T07:05:03.972Z,49.37
2022-08-16T07:10:08.683Z,49.35
2022-08-16T07:15:18.660Z,49.28
2022-08-16T07:20:35.735Z,49.27
2022-08-16T07:25:03.157Z,49.24
2022-08-16T07:30:38.960Z,49.23
2022-08-16T07:35:03.079Z,49.17
2022-08-16T07:40:17.176Z,49.13
2022-08-16T07:45:03.267Z,49.06
2022-08-16T07:50:07.613Z,49.06
2022-08-16T07:55:04.700Z,48.91
2022-08-16T08:00:02.784Z,48.89
2022-08-16T08:05:03.675Z,48.86
2022-08-16T08:10:04.667Z,48.86
2022-08-16T08:15:04.162Z,48.8
2022-08-16T08:20:05.233Z,48.72
2022-08-16T08:25:03.617Z,48.64
2022-08-16T08:30:50.571Z,48.62
2022-08-16T08:35:04.172Z,48.47
2022-08-16T08:40:02.578Z,48.4
2022-08-16T08:45:03.785Z,48.36
2022-08-16T08:50:03.091Z,48.29
2022-08-16T08:55:02.658Z,48.2
2022-08-16T09:00:03.056Z,48.11
2022-08-16T09:05:02.283Z,47.99
2022-08-16T09:10:06.671Z,47.92
2022-08-16T09:15:02.405Z,47.82
2022-08-16T09:20:04.956Z,47.72
2022-08-16T09:25:11.189Z,47.64
2022-08-16T09:30:34.402Z,47.59
2022-08-16T09:35:02.043Z,47.48
2022-08-16T09:40:01.995Z,47.4
2022-08-16T09:45:09.424Z,47.29
2022-08-16T09:50:02.749Z,47.22
2022-08-16T09:55:02.985Z,47.08
2022-08-16T10:00:02.210Z,47.04
2022-08-16T10:05:02.434Z,46.92
2022-08-16T10:10:03.307Z,46.85
2022-08-16T10:15:02.336Z,46.72
2022-08-16T10:20:03.301Z,46.62
2022-08-16T10:25:02.845Z,46.54
2022-08-16T10:30:06.346Z,46.44
2022-08-16T10:35:03.401Z,46.32
2022-08-16T10:40:03.906Z,46.29
2022-08-16T10:45:02.934Z,46.26
2022-08-16T10:50:18.876Z,46.23
2022-08-16T11:00:03.744Z,46.01
2022-08-16T11:05:07.995Z,45.9
2022-08-16T11:10:57.140Z,45.77
2022-08-16T11:15:17.432Z,45.65
2022-08-16T11:26:03.806Z,45.44
2022-08-16T11:30:02.494Z,45.35
2022-08-16T11:35:10.421Z,45.21
2022-08-16T11:40:03.472Z,45.06
2022-08-16T11:45:03.472Z,44.78
2022-08-16T11:50:03.483Z,44.75
2022-08-16T11:55:03.710Z,44.61
2022-08-16T12:00:03.996Z,44.49
2022-08-16T12:05:02.544Z,44.38
2022-08-16T12:10:07.616Z,44.26
2022-08-16T12:15:03.453Z,43.91
2022-08-16T12:20:04.819Z,43.78
2022-08-16T12:25:02.581Z,43.56
2022-08-16T12:30:02.644Z,43.37
2022-08-16T12:35:06.426Z,43.32
2022-08-16T12:40:03.056Z,43.24
2022-08-16T12:45:05.362Z,43.03
2022-08-16T12:50:03.212Z,43.02
2022-08-16T12:55:02.827Z,42.95
2022-08-16T13:00:07.217Z,42.86
2022-08-16T13:05:03.235Z,42.78
2022-08-16T13:10:07.430Z,42.63
2022-08-16T13:15:05.040Z,42.43
2022-08-16T13:20:07.737Z,42.4
2022-08-16T13:25:03.247Z,42.28
2022-08-16T13:30:03.624Z,42.17
2022-08-16T13:35:02.911Z,42.08
2022-08-16T13:40:02.946Z,41.99
2022-08-16T13:45:02.734Z,41.87
2022-08-16T13:50:04.891Z,41.78
2022-08-16T13:55:03.895Z,41.7
2022-08-16T14:00:02.898Z,41.7
2022-08-16T14:05:05.717Z,41.61
2022-08-16T14:10:04.396Z,41.49
2022-08-16T14:15:03.196Z,41.39
2022-08-16T14:20:02.507Z,41.31
2022-08-16T14:25:07.221Z,41.23
2022-08-16T14:30:04.092Z,41.21
2022-08-16T14:35:03.371Z,41.18
2022-08-16T14:40:03.762Z,41.15
2022-08-16T14:45:03.212Z,40.99
2022-08-16T14:50:02.958Z,41.0
2022-08-16T14:55:13.576Z,40.96
2022-08-16T15:00:13.741Z,40.9
2022-08-16T15:05:03.105Z,40.88
2022-08-16T15:10:02.423Z,40.85
2022-08-16T15:15:12.002Z,40.83
2022-08-16T15:20:04.758Z,40.84
2022-08-16T15:25:03.431Z,40.86
2022-08-16T15:30:44.824Z,40.83
2022-08-16T15:35:08.951Z,40.83
2022-08-16T15:40:04.059Z,40.79
2022-08-16T15:45:02.655Z,40.8
2022-08-16T15:50:04.553Z,40.78
2022-08-16T15:55:12.754Z,40.78
2022-08-16T16:00:04.552Z,40.77
2022-08-16T16:05:04.585Z,40.79
2022-08-16T16:10:03.180Z,40.77
2022-08-16T16:15:03.286Z,40.76
2022-08-16T16:20:03.119Z,40.76
2022-08-16T16:25:03.376Z,40.77
2022-08-16T16:30:03.092Z,40.74
2022-08-16T16:35:03.076Z,40.75
2022-08-16T16:40:04.019Z,40.76
2022-08-16T16:45:11.686Z,40.75
2022-08-16T16:50:12.354Z,40.7
2022-08-16T16:55:12.414Z,40.71
2022-08-16T17:00:29.798Z,40.75
2022-08-16T17:05:02.516Z,40.78
2022-08-16T17:10:03.773Z,40.77
2022-08-16T17:15:07.259Z,40.83
2022-08-16T17:20:04.799Z,40.86
2022-08-16T17:25:07.388Z,40.94
2022-08-16T17:35:10.213Z,41.04
2022-08-16T17:39:28.236Z,40.98
2022-08-16T17:40:03.807Z,41.11
2022-08-16T17:45:02.811Z,41.15
2022-08-16T17:50:06.092Z,41.24
2022-08-16T17:55:03.162Z,41.29
2022-08-16T18:00:03.755Z,41.39
2022-08-16T18:05:02.830Z,41.44
2022-08-16T18:10:12.478Z,41.54
2022-08-16T18:15:11.343Z,41.58
2022-08-16T18:20:02.918Z,41.67
2022-08-16T18:25:02.949Z,41.74
2022-08-16T18:30:05.767Z,41.82
2022-08-16T18:35:03.333Z,41.87
2022-08-16T18:40:03.065Z,41.93
2022-08-16T18:45:04.737Z,41.95
2022-08-16T18:50:03.255Z,42.0
2022-08-16T18:55:14.622Z,42.01
2022-08-16T19:00:03.683Z,42.11
2022-08-16T19:05:03.261Z,42.14
2022-08-16T19:10:02.464Z,42.2
2022-08-16T19:15:02.708Z,42.25
2022-08-16T19:20:09.943Z,42.31
2022-08-16T19:25:02.748Z,42.32
2022-08-16T19:30:04.005Z,42.4
2022-08-16T19:35:01.908Z,42.45
2022-08-16T19:40:36.046Z,42.47
2022-08-16T19:45:03.931Z,42.55
2022-08-16T19:50:03.526Z,42.62
2022-08-16T19:55:03.399Z,42.67
2022-08-16T20:00:11.197Z,42.7
2022-08-16T20:05:03.539Z,42.78
2022-08-16T20:10:04.642Z,42.83
2022-08-16T20:15:03.116Z,42.88
2022-08-16T20:20:02.667Z,42.95
2022-08-16T20:25:05.150Z,42.98
2022-08-16T20:30:11.788Z,43.07
2022-08-16T20:35:08.522Z,43.09
2022-08-16T20:40:28.166Z,43.18
2022-08-16T20:45:08.586Z,43.22
2022-08-16T20:50:08.305Z,43.28
2022-08-16T20:55:08.183Z,43.35
2022-08-16T21:00:08.155Z,43.36
2022-08-16T21:05:07.902Z,43.48
2022-08-16T21:10:08.505Z,43.56
2022-08-16T21:15:08.428Z,43.62
2022-08-16T21:20:08.468Z,43.67
2022-08-16T21:25:08.583Z,43.71
2022-08-16T21:30:08.286Z,43.77
2022-08-16T21:35:08.301Z,43.84
2022-08-16T21:40:08.137Z,43.9
2022-08-16T21:45:07.925Z,43.92
2022-08-16T21:50:08.598Z,43.99
2022-08-16T21:55:08.288Z,44.04
2022-08-16T22:00:18.058Z,44.07
2022-08-16T22:05:07.770Z,44.14
2022-08-16T22:11:07.810Z,44.2
2022-08-16T22:15:08.138Z,44.2
2022-08-16T22:20:08.351Z,44.26
2022-08-16T22:25:08.200Z,44.3
2022-08-16T22:30:07.995Z,44.35
2022-08-16T22:35:12.525Z,44.4
2022-08-16T22:40:08.026Z,44.44
2022-08-16T22:45:07.934Z,44.48
2022-08-16T22:50:08.743Z,44.53
2022-08-16T22:55:10.199Z,44.58
2022-08-16T23:01:01.090Z,44.62
2022-08-16T23:05:07.894Z,44.64
2022-08-16T23:10:08.821Z,44.71
2022-08-16T23:15:08.851Z,44.71
2022-08-16T23:20:10.521Z,44.75
2022-08-16T23:25:08.612Z,44.79
2022-08-16T23:30:08.440Z,44.84
2022-08-16T23:35:09.498Z,44.89
2022-08-16T23:40:08.315Z,44.93
2022-08-16T23:45:08.013Z,44.96
2022-08-16T23:50:07.758Z,45.0
2022-08-16T23:55:08.694Z,45.03
